sensor_id;sensor_type;location;lat;lon;timestamp;pressure;altitude;pressure_sealevel;temperature;humidity
27294;BME280;14785;52.556;13.430;2023-04-07T00:01:28;101155.22;;;9.14;100.00
27294;BME280;14785;52.556;13.430;2023-04-07T00:03:53;101154.94;;;9.17;100.00
27294;BME280;14785;52.556;13.430;2023-04-07T00:06:18;101153.16;;;9.17;100.00
27294;BME280;14785;52.556;13.430;2023-04-07T00:08:44;101162.31;;;9.04;100.00
27294;BME280;14785;52.556;13.430;2023-04-07T00:11:09;101152.38;;;9.06;100.00
27294;BME280;14785;52.556;13.430;2023-04-07T00:13:35;101162.06;;;8.77;100.00
27294;BME280;14785;52.556;13.430;2023-04-07T00:16:00;101159.97;;;8.80;100.00
27294;BME280;14785;52.556;13.430;2023-04-07T00:18:26;101149.38;;;9.29;100.00
27294;BME280;14785;52.556;13.430;2023-04-07T00:20:51;101150.13;;;9.41;100.00
27294;BME280;14785;52.556;13.430;2023-04-07T00:23:16;101145.63;;;9.32;100.00
27294;BME280;14785;52.556;13.430;2023-04-07T00:25:42;101147.91;;;9.65;100.00
27294;BME280;14785;52.556;13.430;2023-04-07T00:28:07;101152.63;;;9.52;100.00
27294;BME280;14785;52.556;13.430;2023-04-07T00:30:33;101142.59;;;9.84;100.00
27294;BME280;14785;52.556;13.430;2023-04-07T00:32:59;101144.84;;;9.79;100.00
27294;BME280;14785;52.556;13.430;2023-04-07T00:35:24;101151.13;;;9.59;100.00
27294;BME280;14785;52.556;13.430;2023-04-07T00:37:50;101141.69;;;9.17;100.00
27294;BME280;14785;52.556;13.430;2023-04-07T00:40:16;101143.06;;;9.21;100.00
27294;BME280;14785;52.556;13.430;2023-04-07T00:42:41;101151.22;;;9.29;100.00
27294;BME280;14785;52.556;13.430;2023-04-07T00:45:07;101144.78;;;9.31;100.00
27294;BME280;14785;52.556;13.430;2023-04-07T00:47:34;101142.44;;;9.38;100.00
27294;BME280;14785;52.556;13.430;2023-04-07T00:49:59;101140.44;;;9.40;100.00
27294;BME280;14785;52.556;13.430;2023-04-07T00:52:25;101134.31;;;9.49;100.00
27294;BME280;14785;52.556;13.430;2023-04-07T00:54:53;101134.03;;;9.52;100.00
27294;BME280;14785;52.556;13.430;2023-04-07T00:57:20;101130.28;;;9.45;100.00
27294;BME280;14785;52.556;13.430;2023-04-07T00:59:50;101137.13;;;9.38;100.00
27294;BME280;14785;52.556;13.430;2023-04-07T01:02:20;101129.16;;;9.38;100.00
27294;BME280;14785;52.556;13.430;2023-04-07T01:04:54;101116.53;;;9.21;100.00
27294;BME280;14785;52.556;13.430;2023-04-07T01:07:28;101116.75;;;8.99;100.00
27294;BME280;14785;52.556;13.430;2023-04-07T01:10:01;101112.72;;;9.04;100.00
27294;BME280;14785;52.556;13.430;2023-04-07T01:12:38;101119.59;;;9.07;100.00
27294;BME280;14785;52.556;13.430;2023-04-07T01:15:10;101118.31;;;9.01;100.00
27294;BME280;14785;52.556;13.430;2023-04-07T01:17:38;101112.97;;;8.92;100.00
27294;BME280;14785;52.556;13.430;2023-04-07T01:20:10;101110.81;;;8.76;100.00
27294;BME280;14785;52.556;13.430;2023-04-07T01:22:43;101106.53;;;8.55;100.00
27294;BME280;14785;52.556;13.430;2023-04-07T01:31:08;101106.16;;;8.99;100.00
27294;BME280;14785;52.556;13.430;2023-04-07T01:33:36;101098.47;;;8.96;100.00
27294;BME280;14785;52.556;13.430;2023-04-07T01:36:02;101103.50;;;8.99;100.00
27294;BME280;14785;52.556;13.430;2023-04-07T01:38:29;101107.81;;;9.00;100.00
27294;BME280;14785;52.556;13.430;2023-04-07T01:40:56;101100.53;;;8.83;100.00
27294;BME280;14785;52.556;13.430;2023-04-07T01:43:23;101103.00;;;8.75;100.00
27294;BME280;14785;52.556;13.430;2023-04-07T01:45:50;101097.16;;;8.81;100.00
27294;BME280;14785;52.556;13.430;2023-04-07T01:48:16;101103.72;;;8.86;100.00
27294;BME280;14785;52.556;13.430;2023-04-07T01:50:42;101104.66;;;8.46;100.00
27294;BME280;14785;52.556;13.430;2023-04-07T01:53:07;101098.03;;;8.31;100.00
27294;BME280;14785;52.556;13.430;2023-04-07T01:55:33;101101.84;;;8.38;100.00
27294;BME280;14785;52.556;13.430;2023-04-07T01:58:04;101101.75;;;8.49;100.00
27294;BME280;14785;52.556;13.430;2023-04-07T02:00:30;101098.38;;;7.96;100.00
27294;BME280;14785;52.556;13.430;2023-04-07T02:03:02;101096.03;;;8.03;100.00
27294;BME280;14785;52.556;13.430;2023-04-07T02:05:31;101094.28;;;7.71;100.00
27294;BME280;14785;52.556;13.430;2023-04-07T02:08:05;101088.66;;;8.06;100.00
27294;BME280;14785;52.556;13.430;2023-04-07T02:10:34;101094.03;;;8.16;100.00
27294;BME280;14785;52.556;13.430;2023-04-07T02:13:04;101086.03;;;8.27;100.00
27294;BME280;14785;52.556;13.430;2023-04-07T02:15:30;101088.88;;;8.35;100.00
27294;BME280;14785;52.556;13.430;2023-04-07T02:17:58;101083.69;;;8.33;100.00
27294;BME280;14785;52.556;13.430;2023-04-07T02:20:24;101082.13;;;8.31;100.00
27294;BME280;14785;52.556;13.430;2023-04-07T02:22:52;101087.44;;;8.31;100.00
27294;BME280;14785;52.556;13.430;2023-04-07T02:25:24;101076.69;;;8.12;100.00
27294;BME280;14785;52.556;13.430;2023-04-07T02:27:50;101078.81;;;8.38;100.00
27294;BME280;14785;52.556;13.430;2023-04-07T02:30:15;101078.69;;;8.40;100.00
27294;BME280;14785;52.556;13.430;2023-04-07T02:32:41;101077.22;;;8.56;100.00
27294;BME280;14785;52.556;13.430;2023-04-07T02:35:06;101074.72;;;8.55;100.00
27294;BME280;14785;52.556;13.430;2023-04-07T02:37:32;101076.16;;;8.59;100.00
27294;BME280;14785;52.556;13.430;2023-04-07T02:39:57;101075.34;;;8.77;100.00
27294;BME280;14785;52.556;13.430;2023-04-07T02:42:23;101077.28;;;8.66;100.00
27294;BME280;14785;52.556;13.430;2023-04-07T02:44:49;101069.59;;;8.33;100.00
27294;BME280;14785;52.556;13.430;2023-04-07T02:47:14;101069.28;;;8.56;100.00
27294;BME280;14785;52.556;13.430;2023-04-07T02:49:40;101070.84;;;8.29;100.00
27294;BME280;14785;52.556;13.430;2023-04-07T02:52:06;101074.41;;;7.98;100.00
27294;BME280;14785;52.556;13.430;2023-04-07T02:54:31;101075.19;;;7.89;100.00
27294;BME280;14785;52.556;13.430;2023-04-07T02:56:57;101078.31;;;7.62;100.00
27294;BME280;14785;52.556;13.430;2023-04-07T02:59:22;101072.19;;;8.03;100.00
27294;BME280;14785;52.556;13.430;2023-04-07T03:01:48;101082.00;;;7.70;100.00
27294;BME280;14785;52.556;13.430;2023-04-07T03:04:13;101077.25;;;7.53;100.00
27294;BME280;14785;52.556;13.430;2023-04-07T03:06:38;101071.16;;;7.73;100.00
27294;BME280;14785;52.556;13.430;2023-04-07T03:09:05;101076.47;;;7.73;100.00
27294;BME280;14785;52.556;13.430;2023-04-07T03:11:30;101069.78;;;7.58;100.00
27294;BME280;14785;52.556;13.430;2023-04-07T03:13:56;101073.94;;;7.72;100.00
27294;BME280;14785;52.556;13.430;2023-04-07T03:16:21;101073.25;;;7.59;100.00
27294;BME280;14785;52.556;13.430;2023-04-07T03:18:46;101063.91;;;7.75;100.00
27294;BME280;14785;52.556;13.430;2023-04-07T03:21:12;101066.38;;;7.67;100.00
27294;BME280;14785;52.556;13.430;2023-04-07T03:23:37;101059.81;;;7.82;100.00
27294;BME280;14785;52.556;13.430;2023-04-07T03:26:03;101053.59;;;7.72;100.00
27294;BME280;14785;52.556;13.430;2023-04-07T03:28:28;101063.06;;;7.54;100.00
27294;BME280;14785;52.556;13.430;2023-04-07T03:30:54;101061.59;;;7.61;100.00
27294;BME280;14785;52.556;13.430;2023-04-07T03:33:19;101055.38;;;7.51;100.00
27294;BME280;14785;52.556;13.430;2023-04-07T03:35:45;101051.91;;;7.71;100.00
27294;BME280;14785;52.556;13.430;2023-04-07T03:38:10;101051.50;;;7.97;100.00
27294;BME280;14785;52.556;13.430;2023-04-07T03:40:36;101050.28;;;8.21;100.00
27294;BME280;14785;52.556;13.430;2023-04-07T03:43:01;101049.94;;;8.15;100.00
27294;BME280;14785;52.556;13.430;2023-04-07T03:45:27;101052.16;;;8.10;100.00
27294;BME280;14785;52.556;13.430;2023-04-07T03:47:52;101051.72;;;8.05;100.00
27294;BME280;14785;52.556;13.430;2023-04-07T03:50:18;101053.00;;;7.90;100.00
27294;BME280;14785;52.556;13.430;2023-04-07T03:52:44;101045.66;;;7.93;100.00
27294;BME280;14785;52.556;13.430;2023-04-07T03:55:10;101049.47;;;7.79;100.00
27294;BME280;14785;52.556;13.430;2023-04-07T03:57:35;101047.22;;;7.75;100.00
27294;BME280;14785;52.556;13.430;2023-04-07T04:00:01;101044.94;;;7.91;100.00
27294;BME280;14785;52.556;13.430;2023-04-07T04:02:27;101054.28;;;7.95;100.00
27294;BME280;14785;52.556;13.430;2023-04-07T04:04:52;101056.22;;;7.52;100.00
27294;BME280;14785;52.556;13.430;2023-04-07T04:07:17;101048.03;;;7.55;100.00
27294;BME280;14785;52.556;13.430;2023-04-07T04:09:43;101042.03;;;7.73;100.00
27294;BME280;14785;52.556;13.430;2023-04-07T04:12:08;101048.03;;;7.75;100.00
27294;BME280;14785;52.556;13.430;2023-04-07T04:14:33;101049.25;;;7.71;100.00
27294;BME280;14785;52.556;13.430;2023-04-07T04:16:59;101057.78;;;7.75;100.00
27294;BME280;14785;52.556;13.430;2023-04-07T04:19:24;101048.03;;;7.75;100.00
27294;BME280;14785;52.556;13.430;2023-04-07T04:21:50;101047.50;;;7.81;100.00
27294;BME280;14785;52.556;13.430;2023-04-07T04:24:15;101048.94;;;7.86;100.00
27294;BME280;14785;52.556;13.430;2023-04-07T04:26:41;101053.38;;;8.06;100.00
27294;BME280;14785;52.556;13.430;2023-04-07T04:29:06;101048.03;;;7.75;100.00
27294;BME280;14785;52.556;13.430;2023-04-07T04:31:32;101047.97;;;7.66;100.00
27294;BME280;14785;52.556;13.430;2023-04-07T04:33:57;101047.91;;;7.98;100.00
27294;BME280;14785;52.556;13.430;2023-04-07T04:36:23;101051.56;;;7.44;100.00
27294;BME280;14785;52.556;13.430;2023-04-07T04:38:48;101047.91;;;7.56;100.00
27294;BME280;14785;52.556;13.430;2023-04-07T04:41:13;101058.75;;;7.53;100.00
27294;BME280;14785;52.556;13.430;2023-04-07T04:43:39;101052.69;;;7.62;100.00
27294;BME280;14785;52.556;13.430;2023-04-07T04:46:05;101059.50;;;7.44;100.00
27294;BME280;14785;52.556;13.430;2023-04-07T04:48:31;101061.78;;;7.69;100.00
27294;BME280;14785;52.556;13.430;2023-04-07T04:50:56;101053.63;;;7.09;100.00
27294;BME280;14785;52.556;13.430;2023-04-07T04:53:21;101054.97;;;7.35;100.00
27294;BME280;14785;52.556;13.430;2023-04-07T04:55:47;101061.25;;;7.23;100.00
27294;BME280;14785;52.556;13.430;2023-04-07T04:58:17;101063.19;;;7.21;100.00
27294;BME280;14785;52.556;13.430;2023-04-07T05:00:43;101069.13;;;7.03;100.00
27294;BME280;14785;52.556;13.430;2023-04-07T05:03:08;101063.19;;;7.21;100.00
27294;BME280;14785;52.556;13.430;2023-04-07T05:05:34;101065.25;;;7.49;100.00
27294;BME280;14785;52.556;13.430;2023-04-07T05:07:59;101066.81;;;7.52;100.00
27294;BME280;14785;52.556;13.430;2023-04-07T05:10:25;101067.66;;;7.52;100.00
27294;BME280;14785;52.556;13.430;2023-04-07T05:12:50;101072.44;;;7.58;100.00
27294;BME280;14785;52.556;13.430;2023-04-07T05:15:15;101073.56;;;7.13;100.00
27294;BME280;14785;52.556;13.430;2023-04-07T05:17:41;101066.38;;;7.04;100.00
27294;BME280;14785;52.556;13.430;2023-04-07T05:20:08;101071.91;;;7.01;100.00
27294;BME280;14785;52.556;13.430;2023-04-07T05:22:34;101066.09;;;7.18;100.00
27294;BME280;14785;52.556;13.430;2023-04-07T05:25:00;101073.84;;;7.62;100.00
27294;BME280;14785;52.556;13.430;2023-04-07T05:27:25;101061.09;;;7.67;100.00
27294;BME280;14785;52.556;13.430;2023-04-07T05:29:51;101064.16;;;7.72;100.00
27294;BME280;14785;52.556;13.430;2023-04-07T05:32:18;101059.63;;;7.63;100.00
27294;BME280;14785;52.556;13.430;2023-04-07T05:34:43;101064.38;;;7.80;100.00
27294;BME280;14785;52.556;13.430;2023-04-07T05:37:09;101062.44;;;7.82;100.00
27294;BME280;14785;52.556;13.430;2023-04-07T05:39:35;101063.91;;;7.75;100.00
27294;BME280;14785;52.556;13.430;2023-04-07T05:42:00;101058.88;;;7.72;100.00
27294;BME280;14785;52.556;13.430;2023-04-07T05:44:26;101057.31;;;7.91;100.00
27294;BME280;14785;52.556;13.430;2023-04-07T05:46:52;101058.78;;;7.95;100.00
27294;BME280;14785;52.556;13.430;2023-04-07T05:49:17;101060.38;;;8.07;100.00
27294;BME280;14785;52.556;13.430;2023-04-07T05:51:43;101063.72;;;7.88;100.00
27294;BME280;14785;52.556;13.430;2023-04-07T05:54:11;101066.00;;;7.93;100.00
27294;BME280;14785;52.556;13.430;2023-04-07T05:56:37;101063.22;;;7.94;100.00
27294;BME280;14785;52.556;13.430;2023-04-07T05:59:05;101059.53;;;8.27;100.00
27294;BME280;14785;52.556;13.430;2023-04-07T06:01:31;101063.72;;;8.29;100.00
27294;BME280;14785;52.556;13.430;2023-04-07T06:03:57;101064.09;;;8.45;100.00
27294;BME280;14785;52.556;13.430;2023-04-07T06:06:23;101065.88;;;8.45;100.00
27294;BME280;14785;52.556;13.430;2023-04-07T06:08:49;101071.25;;;8.34;100.00
27294;BME280;14785;52.556;13.430;2023-04-07T06:11:15;101068.59;;;8.24;100.00
27294;BME280;14785;52.556;13.430;2023-04-07T06:13:40;101064.34;;;8.22;100.00
27294;BME280;14785;52.556;13.430;2023-04-07T06:16:06;101073.13;;;8.43;100.00
27294;BME280;14785;52.556;13.430;2023-04-07T06:18:31;101078.00;;;8.77;100.00
27294;BME280;14785;52.556;13.430;2023-04-07T06:20:57;101073.38;;;8.70;100.00
27294;BME280;14785;52.556;13.430;2023-04-07T06:23:22;101078.47;;;8.82;100.00
27294;BME280;14785;52.556;13.430;2023-04-07T06:25:47;101075.44;;;8.57;100.00
27294;BME280;14785;52.556;13.430;2023-04-07T06:28:17;101079.75;;;8.58;100.00
27294;BME280;14785;52.556;13.430;2023-04-07T06:30:43;101082.06;;;8.72;100.00
27294;BME280;14785;52.556;13.430;2023-04-07T06:33:11;101089.53;;;8.97;100.00
27294;BME280;14785;52.556;13.430;2023-04-07T06:35:38;101087.41;;;8.81;100.00
27294;BME280;14785;52.556;13.430;2023-04-07T06:38:04;101092.97;;;8.88;100.00
27294;BME280;14785;52.556;13.430;2023-04-07T06:40:29;101088.22;;;8.52;100.00
27294;BME280;14785;52.556;13.430;2023-04-07T06:42:55;101089.03;;;8.43;100.00
27294;BME280;14785;52.556;13.430;2023-04-07T06:45:20;101085.84;;;8.49;100.00
27294;BME280;14785;52.556;13.430;2023-04-07T06:47:46;101095.50;;;8.80;100.00
27294;BME280;14785;52.556;13.430;2023-04-07T06:50:11;101094.16;;;8.95;100.00
27294;BME280;14785;52.556;13.430;2023-04-07T06:52:37;101087.69;;;8.88;100.00
27294;BME280;14785;52.556;13.430;2023-04-07T06:55:03;101090.19;;;8.80;100.00
27294;BME280;14785;52.556;13.430;2023-04-07T06:57:28;101085.44;;;8.83;100.00
27294;BME280;14785;52.556;13.430;2023-04-07T06:59:54;101088.00;;;8.94;100.00
27294;BME280;14785;52.556;13.430;2023-04-07T07:02:19;101093.97;;;8.87;100.00
27294;BME280;14785;52.556;13.430;2023-04-07T07:04:45;101087.69;;;8.88;100.00
27294;BME280;14785;52.556;13.430;2023-04-07T07:07:10;101095.03;;;9.24;100.00
27294;BME280;14785;52.556;13.430;2023-04-07T07:09:35;101091.38;;;9.25;100.00
27294;BME280;14785;52.556;13.430;2023-04-07T07:12:01;101097.00;;;9.22;100.00
27294;BME280;14785;52.556;13.430;2023-04-07T07:14:27;101092.00;;;9.66;100.00
27294;BME280;14785;52.556;13.430;2023-04-07T07:16:52;101089.75;;;9.62;100.00
27294;BME280;14785;52.556;13.430;2023-04-07T07:19:18;101097.84;;;9.51;100.00
27294;BME280;14785;52.556;13.430;2023-04-07T07:21:43;101096.88;;;9.52;100.00
27294;BME280;14785;52.556;13.430;2023-04-07T07:24:09;101102.59;;;9.76;100.00
27294;BME280;14785;52.556;13.430;2023-04-07T07:26:34;101105.97;;;9.78;100.00
27294;BME280;14785;52.556;13.430;2023-04-07T07:29:00;101095.34;;;9.59;100.00
27294;BME280;14785;52.556;13.430;2023-04-07T07:31:26;101104.00;;;9.99;100.00
27294;BME280;14785;52.556;13.430;2023-04-07T07:33:51;101102.72;;;10.03;100.00
27294;BME280;14785;52.556;13.430;2023-04-07T07:36:17;101101.19;;;10.20;100.00
27294;BME280;14785;52.556;13.430;2023-04-07T07:38:42;101106.50;;;10.20;100.00
27294;BME280;14785;52.556;13.430;2023-04-07T07:41:08;101101.56;;;10.34;100.00
27294;BME280;14785;52.556;13.430;2023-04-07T07:43:33;101110.19;;;10.55;100.00
27294;BME280;14785;52.556;13.430;2023-04-07T07:45:59;101109.50;;;10.53;100.00
27294;BME280;14785;52.556;13.430;2023-04-07T07:48:25;101104.19;;;10.53;100.00
27294;BME280;14785;52.556;13.430;2023-04-07T07:50:50;101108.69;;;10.43;99.29
27294;BME280;14785;52.556;13.430;2023-04-07T07:53:17;101105.84;;;10.54;100.00
27294;BME280;14785;52.556;13.430;2023-04-07T07:55:44;101110.41;;;10.35;99.23
27294;BME280;14785;52.556;13.430;2023-04-07T07:58:10;101112.56;;;10.58;100.00
27294;BME280;14785;52.556;13.430;2023-04-07T08:00:35;101111.59;;;10.59;99.51
27294;BME280;14785;52.556;13.430;2023-04-07T08:03:01;101110.66;;;11.05;99.59
27294;BME280;14785;52.556;13.430;2023-04-07T08:05:26;101116.53;;;10.81;97.32
27294;BME280;14785;52.556;13.430;2023-04-07T08:07:52;101113.84;;;10.91;99.29
27294;BME280;14785;52.556;13.430;2023-04-07T08:10:17;101112.72;;;10.84;92.46
27294;BME280;14785;52.556;13.430;2023-04-07T08:12:44;101119.22;;;11.08;100.00
27294;BME280;14785;52.556;13.430;2023-04-07T08:15:10;101127.94;;;11.45;95.37
27294;BME280;14785;52.556;13.430;2023-04-07T08:17:35;101126.00;;;11.20;88.55
27294;BME280;14785;52.556;13.430;2023-04-07T08:20:03;101122.72;;;11.09;89.91
27294;BME280;14785;52.556;13.430;2023-04-07T08:22:29;101123.31;;;11.03;91.40
27294;BME280;14785;52.556;13.430;2023-04-07T08:24:54;101119.34;;;11.07;90.61
27294;BME280;14785;52.556;13.430;2023-04-07T08:27:20;101121.91;;;11.43;84.80
27294;BME280;14785;52.556;13.430;2023-04-07T08:29:57;101125.00;;;11.21;84.63
27294;BME280;14785;52.556;13.430;2023-04-07T08:32:23;101119.75;;;11.56;86.25
27294;BME280;14785;52.556;13.430;2023-04-07T08:34:48;101124.50;;;11.63;87.55
27294;BME280;14785;52.556;13.430;2023-04-07T08:37:14;101127.16;;;11.63;86.25
27294;BME280;14785;52.556;13.430;2023-04-07T08:39:39;101128.03;;;11.53;87.72
27294;BME280;14785;52.556;13.430;2023-04-07T08:42:06;101120.19;;;11.52;86.41
27294;BME280;14785;52.556;13.430;2023-04-07T08:44:35;101125.88;;;11.57;84.71
27294;BME280;14785;52.556;13.430;2023-04-07T08:47:03;101132.75;;;11.59;84.09
27294;BME280;14785;52.556;13.430;2023-04-07T08:49:33;101127.31;;;11.79;85.43
27294;BME280;14785;52.556;13.430;2023-04-07T08:52:04;101128.34;;;11.50;77.87
27294;BME280;14785;52.556;13.430;2023-04-07T08:54:31;101143.19;;;11.26;80.63
27294;BME280;14785;52.556;13.430;2023-04-07T08:56:58;101144.28;;;11.33;81.96
27294;BME280;14785;52.556;13.430;2023-04-07T08:59:25;101150.72;;;11.57;82.26
27294;BME280;14785;52.556;13.430;2023-04-07T09:01:53;101149.91;;;11.30;74.55
27294;BME280;14785;52.556;13.430;2023-04-07T09:04:19;101151.44;;;11.32;78.79
27294;BME280;14785;52.556;13.430;2023-04-07T09:06:47;101151.81;;;10.83;76.77
27294;BME280;14785;52.556;13.430;2023-04-07T09:09:13;101155.00;;;11.23;79.28
27294;BME280;14785;52.556;13.430;2023-04-07T09:11:38;101151.50;;;11.23;79.44
27294;BME280;14785;52.556;13.430;2023-04-07T09:14:05;101156.88;;;11.58;83.63
27294;BME280;14785;52.556;13.430;2023-04-07T09:16:31;101150.66;;;11.22;77.68
27294;BME280;14785;52.556;13.430;2023-04-07T09:18:57;101148.78;;;11.32;80.90
27294;BME280;14785;52.556;13.430;2023-04-07T09:21:23;101151.63;;;11.48;87.09
27294;BME280;14785;52.556;13.430;2023-04-07T09:23:48;101147.78;;;11.33;78.79
27294;BME280;14785;52.556;13.430;2023-04-07T09:28:44;101151.13;;;10.81;83.84
27294;BME280;14785;52.556;13.430;2023-04-07T09:31:10;101148.34;;;10.73;78.89
27294;BME280;14785;52.556;13.430;2023-04-07T09:33:35;101150.72;;;10.76;84.32
27294;BME280;14785;52.556;13.430;2023-04-07T09:36:05;101151.72;;;10.75;88.17
27294;BME280;14785;52.556;13.430;2023-04-07T09:38:33;101154.78;;;10.80;84.34
27294;BME280;14785;52.556;13.430;2023-04-07T09:41:06;101165.72;;;10.77;81.24
27294;BME280;14785;52.556;13.430;2023-04-07T09:43:36;101161.50;;;10.75;86.26
27294;BME280;14785;52.556;13.430;2023-04-07T09:46:15;101157.25;;;10.91;89.77
27294;BME280;14785;52.556;13.430;2023-04-07T09:48:42;101154.28;;;10.94;85.63
27294;BME280;14785;52.556;13.430;2023-04-07T09:51:13;101158.91;;;11.46;87.74
27294;BME280;14785;52.556;13.430;2023-04-07T09:53:54;101153.69;;;11.27;89.48
27294;BME280;14785;52.556;13.430;2023-04-07T09:56:20;101146.22;;;11.58;87.25
27294;BME280;14785;52.556;13.430;2023-04-07T09:58:49;101152.81;;;11.36;85.34
27294;BME280;14785;52.556;13.430;2023-04-07T10:01:21;101157.25;;;11.45;89.66
27294;BME280;14785;52.556;13.430;2023-04-07T10:03:47;101155.16;;;11.67;90.46
27294;BME280;14785;52.556;13.430;2023-04-07T10:06:13;101160.50;;;11.67;84.10
27294;BME280;14785;52.556;13.430;2023-04-07T10:08:41;101163.63;;;11.52;87.32
27294;BME280;14785;52.556;13.430;2023-04-07T10:11:08;101157.00;;;11.84;90.65
27294;BME280;14785;52.556;13.430;2023-04-07T10:13:36;101156.91;;;11.93;89.69
27294;BME280;14785;52.556;13.430;2023-04-07T10:16:03;101155.00;;;11.86;88.91
27294;BME280;14785;52.556;13.430;2023-04-07T10:18:31;101161.81;;;11.35;91.30
27294;BME280;14785;52.556;13.430;2023-04-07T10:21:02;101160.72;;;11.28;88.46
27294;BME280;14785;52.556;13.430;2023-04-07T10:26:19;101163.56;;;11.17;94.80
27294;BME280;14785;52.556;13.430;2023-04-07T10:28:50;101164.56;;;10.89;97.45
27294;BME280;14785;52.556;13.430;2023-04-07T10:31:19;101159.13;;;11.08;98.71
27294;BME280;14785;52.556;13.430;2023-04-07T10:33:47;101156.06;;;11.03;100.00
27294;BME280;14785;52.556;13.430;2023-04-07T10:36:13;101160.81;;;11.09;100.00
27294;BME280;14785;52.556;13.430;2023-04-07T10:38:39;101151.72;;;10.75;100.00
27294;BME280;14785;52.556;13.430;2023-04-07T10:41:34;101154.19;;;10.86;100.00
27294;BME280;14785;52.556;13.430;2023-04-07T10:44:05;101159.81;;;11.37;100.00
27294;BME280;14785;52.556;13.430;2023-04-07T10:49:13;101165.06;;;11.02;100.00
27294;BME280;14785;52.556;13.430;2023-04-07T10:51:39;101158.66;;;11.22;100.00
27294;BME280;14785;52.556;13.430;2023-04-07T10:54:20;101154.66;;;11.09;100.00
27294;BME280;14785;52.556;13.430;2023-04-07T10:59:31;101145.81;;;10.81;100.00
27294;BME280;14785;52.556;13.430;2023-04-07T11:04:52;101150.47;;;11.51;100.00
27294;BME280;14785;52.556;13.430;2023-04-07T11:07:17;101155.19;;;11.39;100.00
27294;BME280;14785;52.556;13.430;2023-04-07T11:09:44;101151.50;;;11.23;100.00
27294;BME280;14785;52.556;13.430;2023-04-07T11:12:22;101156.50;;;11.26;100.00
27294;BME280;14785;52.556;13.430;2023-04-07T11:14:48;101153.56;;;11.74;100.00
27294;BME280;14785;52.556;13.430;2023-04-07T11:17:14;101157.06;;;11.29;100.00
27294;BME280;14785;52.556;13.430;2023-04-07T11:19:56;101146.13;;;11.77;100.00
27294;BME280;14785;52.556;13.430;2023-04-07T11:22:22;101155.00;;;11.86;100.00
27294;BME280;14785;52.556;13.430;2023-04-07T11:24:48;101149.56;;;11.60;100.00
27294;BME280;14785;52.556;13.430;2023-04-07T11:27:15;101146.13;;;11.77;100.00
27294;BME280;14785;52.556;13.430;2023-04-07T11:29:40;101144.06;;;11.44;100.00
27294;BME280;14785;52.556;13.430;2023-04-07T11:32:06;101143.34;;;11.24;100.00
27294;BME280;14785;52.556;13.430;2023-04-07T11:34:33;101143.34;;;11.24;100.00
27294;BME280;14785;52.556;13.430;2023-04-07T11:37:22;101142.56;;;11.14;100.00
27294;BME280;14785;52.556;13.430;2023-04-07T11:39:56;101143.94;;;11.18;100.00
27294;BME280;14785;52.556;13.430;2023-04-07T11:42:35;101143.53;;;11.40;100.00
27294;BME280;14785;52.556;13.430;2023-04-07T11:45:01;101142.22;;;11.00;100.00
27294;BME280;14785;52.556;13.430;2023-04-07T11:47:37;101137.78;;;10.91;100.00
27294;BME280;14785;52.556;13.430;2023-04-07T11:50:03;101145.13;;;11.33;100.00
27294;BME280;14785;52.556;13.430;2023-04-07T11:52:46;101145.38;;;11.57;100.00
27294;BME280;14785;52.556;13.430;2023-04-07T11:55:19;101140.00;;;10.95;100.00
27294;BME280;14785;52.556;13.430;2023-04-07T11:57:49;101144.25;;;11.15;100.00
27294;BME280;14785;52.556;13.430;2023-04-07T12:00:18;101141.28;;;11.18;100.00
27294;BME280;14785;52.556;13.430;2023-04-07T12:02:44;101141.50;;;11.07;100.00
27294;BME280;14785;52.556;13.430;2023-04-07T12:05:10;101137.38;;;11.40;100.00
27294;BME280;14785;52.556;13.430;2023-04-07T12:07:36;101141.38;;;11.26;100.00
27294;BME280;14785;52.556;13.430;2023-04-07T12:10:23;101140.69;;;11.24;100.00
27294;BME280;14785;52.556;13.430;2023-04-07T12:12:51;101133.88;;;11.12;100.00
27294;BME280;14785;52.556;13.430;2023-04-07T12:15:17;101139.50;;;11.09;100.00
27294;BME280;14785;52.556;13.430;2023-04-07T12:17:44;101144.16;;;10.71;100.00
27294;BME280;14785;52.556;13.430;2023-04-07T12:20:14;101137.13;;;11.06;100.00
27294;BME280;14785;52.556;13.430;2023-04-07T12:22:40;101138.75;;;10.90;100.00
27294;BME280;14785;52.556;13.430;2023-04-07T12:25:06;101149.50;;;10.61;100.00
27294;BME280;14785;52.556;13.430;2023-04-07T12:27:31;101143.59;;;10.77;100.00
27294;BME280;14785;52.556;13.430;2023-04-07T12:29:57;101131.50;;;10.82;100.00
27294;BME280;14785;52.556;13.430;2023-04-07T12:32:22;101133.41;;;10.99;100.00
27294;BME280;14785;52.556;13.430;2023-04-07T12:34:48;101134.91;;;11.29;100.00
27294;BME280;14785;52.556;13.430;2023-04-07T12:37:13;101138.31;;;10.94;100.00
27294;BME280;14785;52.556;13.430;2023-04-07T12:39:38;101135.47;;;11.05;100.00
27294;BME280;14785;52.556;13.430;2023-04-07T12:42:04;101139.44;;;11.28;100.00
27294;BME280;14785;52.556;13.430;2023-04-07T12:44:30;101132.28;;;10.65;100.00
27294;BME280;14785;52.556;13.430;2023-04-07T12:46:55;101133.69;;;10.96;100.00
27294;BME280;14785;52.556;13.430;2023-04-07T12:49:21;101126.19;;;10.82;100.00
27294;BME280;14785;52.556;13.430;2023-04-07T12:51:46;101131.06;;;10.50;100.00
27294;BME280;14785;52.556;13.430;2023-04-07T12:54:12;101143.09;;;10.54;100.00
27294;BME280;14785;52.556;13.430;2023-04-07T12:56:37;101130.78;;;10.53;100.00